createdAt,value
2017-12-05T00:00:06.719Z,925.47
2017-12-05T00:00:19.576Z,925.45
2017-12-05T00:00:32.668Z,925.49
2017-12-05T00:00:45.309Z,925.45
2017-12-05T00:00:58.355Z,925.48
2017-12-05T00:01:11.434Z,925.51
2017-12-05T00:01:24.597Z,925.47
2017-12-05T00:01:37.698Z,925.48
2017-12-05T00:01:50.790Z,925.5
2017-12-05T00:02:03.870Z,925.56
2017-12-05T00:02:16.956Z,925.55
2017-12-05T00:02:29.580Z,925.52
2017-12-05T00:02:42.659Z,925.51
2017-12-05T00:02:55.779Z,925.52
2017-12-05T00:03:08.881Z,925.5
2017-12-05T00:03:22.005Z,925.53
2017-12-05T00:03:34.861Z,925.57
2017-12-05T00:03:47.964Z,925.54
2017-12-05T00:04:01.017Z,925.55
2017-12-05T00:04:14.114Z,925.53
2017-12-05T00:04:27.259Z,925.56
2017-12-05T00:04:39.921Z,925.56
2017-12-05T00:04:53.087Z,925.59
2017-12-05T00:05:06.234Z,925.56
2017-12-05T00:05:19.381Z,925.6
2017-12-05T00:05:32.511Z,925.61
2017-12-05T00:05:45.605Z,925.61
2017-12-05T00:05:58.671Z,925.64
2017-12-05T00:06:11.792Z,925.61
2017-12-05T00:06:24.389Z,925.59
2017-12-05T00:06:37.501Z,925.64
2017-12-05T00:06:50.579Z,925.62
2017-12-05T00:07:03.933Z,925.63
2017-12-05T00:07:16.531Z,925.62
2017-12-05T00:07:29.206Z,925.65
2017-12-05T00:07:42.281Z,925.69
2017-12-05T00:07:55.460Z,925.65
2017-12-05T00:08:08.582Z,925.63
2017-12-05T00:08:21.709Z,925.66
2017-12-05T00:08:34.846Z,925.67
2017-12-05T00:08:47.920Z,925.67
2017-12-05T00:09:01.036Z,925.66
2017-12-05T00:09:14.142Z,925.68
2017-12-05T00:09:27.249Z,925.66
2017-12-05T00:09:40.361Z,925.68
2017-12-05T00:09:53.448Z,925.63
2017-12-05T00:10:06.536Z,925.65
2017-12-05T00:10:19.251Z,925.65
2017-12-05T00:10:32.316Z,925.61
2017-12-05T00:10:45.430Z,925.67
2017-12-05T00:10:58.547Z,925.64
2017-12-05T00:11:11.677Z,925.62
2017-12-05T00:11:24.769Z,925.63
2017-12-05T00:11:37.896Z,925.63
2017-12-05T00:11:51.004Z,925.61
2017-12-05T00:12:04.102Z,925.64
2017-12-05T00:12:17.167Z,925.64
2017-12-05T00:12:30.257Z,925.61
2017-12-05T00:12:43.403Z,925.65
2017-12-05T00:12:55.610Z,925.64
2017-12-05T00:13:08.723Z,925.64
2017-12-05T00:13:21.835Z,925.64
2017-12-05T00:13:34.497Z,925.65
2017-12-05T00:13:47.628Z,925.64
2017-12-05T00:14:00.664Z,925.66
2017-12-05T00:14:12.856Z,925.61
2017-12-05T00:14:25.435Z,925.67
2017-12-05T00:14:38.134Z,925.66
2017-12-05T00:14:51.219Z,925.66
2017-12-05T00:15:03.886Z,925.7
2017-12-05T00:15:16.504Z,925.66
2017-12-05T00:15:29.691Z,925.66
2017-12-05T00:15:42.756Z,925.66
2017-12-05T00:15:55.836Z,925.69
2017-12-05T00:16:08.947Z,925.67
2017-12-05T00:16:22.105Z,925.66
2017-12-05T00:16:34.698Z,925.68
2017-12-05T00:16:47.810Z,925.69
2017-12-05T00:17:01.008Z,925.74
2017-12-05T00:17:14.132Z,925.73
2017-12-05T00:17:27.208Z,925.7
2017-12-05T00:17:40.326Z,925.69
2017-12-05T00:17:53.438Z,925.68
2017-12-05T00:18:06.051Z,925.69
2017-12-05T00:18:19.192Z,925.7
2017-12-05T00:18:31.817Z,925.67
2017-12-05T00:18:44.390Z,925.7
2017-12-05T00:18:57.567Z,925.69
2017-12-05T00:19:10.196Z,925.67
2017-12-05T00:19:23.289Z,925.68
2017-12-05T00:19:36.380Z,925.64
2017-12-05T00:19:49.055Z,925.62
2017-12-05T00:20:02.196Z,925.68
2017-12-05T00:20:14.883Z,925.65
2017-12-05T00:20:27.492Z,925.64
2017-12-05T00:20:40.108Z,925.63
2017-12-05T00:20:53.224Z,925.63
2017-12-05T00:21:06.311Z,925.67
2017-12-05T00:21:19.369Z,925.66
2017-12-05T00:21:32.556Z,925.69
2017-12-05T00:21:45.628Z,925.67
2017-12-05T00:21:58.739Z,925.68
2017-12-05T00:22:11.870Z,925.68
2017-12-05T00:22:24.470Z,925.68
2017-12-05T00:22:37.575Z,925.69
2017-12-05T00:22:50.648Z,925.69
2017-12-05T00:23:03.785Z,925.72
2017-12-05T00:23:16.916Z,925.72
2017-12-05T00:23:30.050Z,925.68
2017-12-05T00:23:43.114Z,925.73
2017-12-05T00:23:56.155Z,925.74
2017-12-05T00:24:09.235Z,925.67
2017-12-05T00:24:22.373Z,925.69
2017-12-05T00:24:35.526Z,925.72
2017-12-05T00:24:48.608Z,925.69
2017-12-05T00:25:01.694Z,925.72
2017-12-05T00:25:14.790Z,925.71
2017-12-05T00:25:27.828Z,925.67
2017-12-05T00:25:40.916Z,925.67
2017-12-05T00:25:54.075Z,925.75
2017-12-05T00:26:06.716Z,925.71
2017-12-05T00:26:19.356Z,925.72
2017-12-05T00:26:32.002Z,925.72
2017-12-05T00:26:45.105Z,925.72
2017-12-05T00:26:58.184Z,925.7
2017-12-05T00:27:10.846Z,925.72
2017-12-05T00:27:23.924Z,925.76
2017-12-05T00:27:37.067Z,925.77
2017-12-05T00:27:50.164Z,925.77
2017-12-05T00:28:03.262Z,925.74
2017-12-05T00:28:16.366Z,925.77
2017-12-05T00:28:29.514Z,925.76
2017-12-05T00:28:42.798Z,925.78
2017-12-05T00:28:55.846Z,925.76
2017-12-05T00:29:07.999Z,925.78
2017-12-05T00:29:21.142Z,925.76
2017-12-05T00:29:34.264Z,925.78
2017-12-05T00:29:47.351Z,925.77
2017-12-05T00:30:00.407Z,925.79
2017-12-05T00:30:13.228Z,925.79
2017-12-05T00:30:26.366Z,925.81
2017-12-05T00:30:39.702Z,925.78
2017-12-05T00:30:52.794Z,925.82
2017-12-05T00:31:05.454Z,925.8
2017-12-05T00:31:17.627Z,925.78
2017-12-05T00:31:30.187Z,925.86
2017-12-05T00:31:43.288Z,925.83
2017-12-05T00:31:56.367Z,925.86
2017-12-05T00:32:08.996Z,925.81
2017-12-05T00:32:22.104Z,925.82
2017-12-05T00:32:34.737Z,925.85
2017-12-05T00:32:47.832Z,925.8
2017-12-05T00:33:01.144Z,925.87
2017-12-05T00:33:14.256Z,925.83
2017-12-05T00:33:27.328Z,925.85
2017-12-05T00:33:40.451Z,925.8
2017-12-05T00:33:53.574Z,925.83
2017-12-05T00:34:06.684Z,925.83
2017-12-05T00:34:19.781Z,925.82
2017-12-05T00:34:32.384Z,925.82
2017-12-05T00:34:45.499Z,925.85
2017-12-05T00:34:57.699Z,925.84
2017-12-05T00:35:09.419Z,925.84
2017-12-05T00:35:22.604Z,925.81
2017-12-05T00:35:35.725Z,925.82
2017-12-05T00:35:48.842Z,925.84
2017-12-05T00:36:01.444Z,925.83
2017-12-05T00:36:14.579Z,925.8
2017-12-05T00:36:27.788Z,925.8
2017-12-05T00:36:40.400Z,925.82
2017-12-05T00:36:53.489Z,925.85
2017-12-05T00:37:06.648Z,925.82
2017-12-05T00:37:19.302Z,925.79
2017-12-05T00:37:32.504Z,925.87
2017-12-05T00:37:45.589Z,925.87
2017-12-05T00:37:58.648Z,925.88
2017-12-05T00:38:11.703Z,925.85
2017-12-05T00:38:24.837Z,925.88
2017-12-05T00:38:37.979Z,925.87
2017-12-05T00:38:51.086Z,925.86
2017-12-05T00:39:04.158Z,925.87
2017-12-05T00:39:17.206Z,925.91
2017-12-05T00:39:30.273Z,925.89
2017-12-05T00:39:43.437Z,925.94
2017-12-05T00:39:56.577Z,925.93
2017-12-05T00:40:09.159Z,925.95
2017-12-05T00:40:22.501Z,925.97
2017-12-05T00:40:35.637Z,925.96
2017-12-05T00:40:48.799Z,925.94
2017-12-05T00:41:01.918Z,925.92
2017-12-05T00:41:14.998Z,925.95
2017-12-05T00:41:28.093Z,925.95
2017-12-05T00:41:41.170Z,925.93
2017-12-05T00:41:54.296Z,925.95
2017-12-05T00:42:06.438Z,925.95
2017-12-05T00:42:19.733Z,925.98
2017-12-05T00:42:32.832Z,925.94
2017-12-05T00:42:45.905Z,925.95
2017-12-05T00:42:58.491Z,925.96
2017-12-05T00:43:11.150Z,925.92
2017-12-05T00:43:24.212Z,925.92
2017-12-05T00:43:37.356Z,925.92
2017-12-05T00:43:52.189Z,925.92
2017-12-05T00:44:18.042Z,925.9
2017-12-05T00:44:31.147Z,925.9
2017-12-05T00:44:43.281Z,925.9
2017-12-05T00:44:56.408Z,925.9
2017-12-05T00:45:09.056Z,925.89
2017-12-05T00:45:21.661Z,925.91
2017-12-05T00:45:34.781Z,925.94
2017-12-05T00:45:47.950Z,925.9
2017-12-05T00:46:01.074Z,925.92
2017-12-05T00:46:13.683Z,925.91
2017-12-05T00:46:26.745Z,925.94
2017-12-05T00:46:39.417Z,925.93
2017-12-05T00:46:52.458Z,925.95
2017-12-05T00:47:05.554Z,925.92
2017-12-05T00:47:18.644Z,925.93
2017-12-05T00:47:31.729Z,925.9
2017-12-05T00:47:44.874Z,925.94
2017-12-05T00:47:58.014Z,925.95
2017-12-05T00:48:10.684Z,925.98
2017-12-05T00:48:23.323Z,925.98
2017-12-05T00:48:36.375Z,925.94
2017-12-05T00:48:49.432Z,925.98
2017-12-05T00:49:02.546Z,925.97
2017-12-05T00:49:15.591Z,925.93
2017-12-05T00:49:28.632Z,925.93
2017-12-05T00:49:41.792Z,925.9
2017-12-05T00:49:54.919Z,925.91
2017-12-05T00:50:07.057Z,925.9
2017-12-05T00:50:19.714Z,925.95
2017-12-05T00:50:32.785Z,925.9
2017-12-05T00:50:45.409Z,925.9
2017-12-05T00:50:58.570Z,925.93
2017-12-05T00:51:11.211Z,925.9
2017-12-05T00:51:23.926Z,925.9
2017-12-05T00:51:36.519Z,925.9
2017-12-05T00:51:49.185Z,925.88
2017-12-05T00:52:02.340Z,925.94
2017-12-05T00:52:14.972Z,925.89
2017-12-05T00:52:28.047Z,925.89
2017-12-05T00:52:41.151Z,925.9
2017-12-05T00:52:54.260Z,925.89
2017-12-05T00:53:06.889Z,925.9
2017-12-05T00:53:19.998Z,925.88
2017-12-05T00:53:32.634Z,925.89
2017-12-05T00:53:45.239Z,925.87
2017-12-05T00:53:58.374Z,925.91
2017-12-05T00:54:11.761Z,925.92
2017-12-05T00:54:24.918Z,925.93
2017-12-05T00:54:38.032Z,925.9
2017-12-05T00:54:51.102Z,925.92
2017-12-05T00:55:03.697Z,925.92
2017-12-05T00:55:16.797Z,925.88
2017-12-05T00:55:29.414Z,925.94
2017-12-05T00:55:42.553Z,925.91
2017-12-05T00:55:55.642Z,925.91
2017-12-05T00:56:08.743Z,925.91
2017-12-05T00:56:21.423Z,925.95
2017-12-05T00:56:34.504Z,925.94
2017-12-05T00:56:47.647Z,925.96
2017-12-05T00:57:00.767Z,925.91
2017-12-05T00:57:13.894Z,925.92
2017-12-05T00:57:26.027Z,925.93
2017-12-05T00:57:38.680Z,925.92
2017-12-05T00:57:50.813Z,925.92
2017-12-05T00:58:03.442Z,925.91
2017-12-05T00:58:16.269Z,925.94
2017-12-05T00:58:29.299Z,925.93
2017-12-05T00:58:42.365Z,925.89
2017-12-05T00:58:55.712Z,925.89
2017-12-05T00:59:08.829Z,925.88
2017-12-05T00:59:21.907Z,925.89
2017-12-05T00:59:35.064Z,925.9
2017-12-05T00:59:48.181Z,925.85
2017-12-05T01:00:01.266Z,925.86
2017-12-05T01:00:14.356Z,925.84
2017-12-05T01:00:27.502Z,925.84
2017-12-05T01:00:40.158Z,925.88
2017-12-05T01:00:52.803Z,925.89
2017-12-05T01:01:05.425Z,925.86
2017-12-05T01:01:18.043Z,925.86
2017-12-05T01:01:30.688Z,925.86
2017-12-05T01:01:43.326Z,925.83
2017-12-05T01:01:55.921Z,925.87
2017-12-05T01:02:08.526Z,925.86
2017-12-05T01:02:21.111Z,925.87
2017-12-05T01:02:33.716Z,925.88
2017-12-05T01:02:46.795Z,925.86
2017-12-05T01:02:59.876Z,925.89
2017-12-05T01:03:12.553Z,925.87
2017-12-05T01:03:25.132Z,925.83
2017-12-05T01:03:38.255Z,925.88
2017-12-05T01:03:51.326Z,925.87
2017-12-05T01:04:04.567Z,925.88
2017-12-05T01:04:17.218Z,925.88
2017-12-05T01:04:30.292Z,925.89
2017-12-05T01:04:43.413Z,925.88
2017-12-05T01:04:56.552Z,925.9
2017-12-05T01:05:09.655Z,925.92
2017-12-05T01:05:22.705Z,925.93
2017-12-05T01:05:35.343Z,925.91
2017-12-05T01:05:48.491Z,925.88
2017-12-05T01:06:01.098Z,925.9
2017-12-05T01:06:14.157Z,925.88
2017-12-05T01:06:26.748Z,925.93
2017-12-05T01:06:38.851Z,925.92
2017-12-05T01:06:51.965Z,925.87
2017-12-05T01:07:04.087Z,925.91
2017-12-05T01:07:17.170Z,925.93
2017-12-05T01:07:29.781Z,925.89
2017-12-05T01:07:41.910Z,925.87
2017-12-05T01:07:55.006Z,925.87
2017-12-05T01:08:08.141Z,925.89
2017-12-05T01:08:20.758Z,925.85
2017-12-05T01:08:32.922Z,925.9
2017-12-05T01:08:46.023Z,925.86
2017-12-05T01:08:59.104Z,925.85
2017-12-05T01:09:12.172Z,925.85
2017-12-05T01:09:25.208Z,925.86
2017-12-05T01:09:38.342Z,925.85
2017-12-05T01:09:51.436Z,925.87
2017-12-05T01:10:04.139Z,925.86
2017-12-05T01:10:17.263Z,925.84
2017-12-05T01:10:30.385Z,925.87
2017-12-05T01:10:43.490Z,925.86
2017-12-05T01:10:56.173Z,925.85
2017-12-05T01:11:09.213Z,925.86
2017-12-05T01:11:21.843Z,925.86
2017-12-05T01:11:34.474Z,925.87
2017-12-05T01:11:47.579Z,925.89
2017-12-05T01:11:59.765Z,925.89
2017-12-05T01:12:12.320Z,925.9
2017-12-05T01:12:25.339Z,925.86
2017-12-05T01:12:37.989Z,925.94
2017-12-05T01:12:51.041Z,925.91
2017-12-05T01:13:03.693Z,925.92
2017-12-05T01:13:16.845Z,925.92
2017-12-05T01:13:29.480Z,925.94
2017-12-05T01:13:42.574Z,925.96
2017-12-05T01:13:55.664Z,925.92
2017-12-05T01:14:08.914Z,925.94
2017-12-05T01:14:22.071Z,925.95
2017-12-05T01:14:35.198Z,925.95
2017-12-05T01:14:48.273Z,925.96
2017-12-05T01:15:01.425Z,925.97
2017-12-05T01:15:14.552Z,925.94
2017-12-05T01:15:27.692Z,925.92
2017-12-05T01:15:40.382Z,925.92
2017-12-05T01:15:53.450Z,925.92
2017-12-05T01:16:06.551Z,926.01
2017-12-05T01:16:19.180Z,925.95
2017-12-05T01:16:31.770Z,925.97
2017-12-05T01:16:44.399Z,925.98
2017-12-05T01:16:57.564Z,926
2017-12-05T01:17:10.643Z,925.99
2017-12-05T01:17:23.757Z,925.99
2017-12-05T01:17:36.838Z,926
2017-12-05T01:17:49.891Z,926.03
2017-12-05T01:18:02.956Z,926.04
2017-12-05T01:18:15.578Z,925.98
2017-12-05T01:18:28.668Z,926.01
2017-12-05T01:18:41.768Z,926.01
2017-12-05T01:18:53.926Z,925.99
2017-12-05T01:19:06.983Z,926.03
2017-12-05T01:19:20.139Z,926.01
2017-12-05T01:19:32.757Z,926.03
2017-12-05T01:19:45.795Z,926.04
2017-12-05T01:19:58.840Z,926.03
2017-12-05T01:20:11.475Z,926.03
2017-12-05T01:20:24.070Z,926.01
2017-12-05T01:20:36.703Z,926.08
2017-12-05T01:20:49.816Z,926.03
2017-12-05T01:21:02.404Z,926.06
2017-12-05T01:21:15.538Z,926.06
2017-12-05T01:21:28.638Z,926.04
2017-12-05T01:21:41.719Z,926
2017-12-05T01:21:54.394Z,926.03
2017-12-05T01:22:07.024Z,926.02
2017-12-05T01:22:19.176Z,926.05
2017-12-05T01:22:32.311Z,926.05
2017-12-05T01:22:44.951Z,926.03
2017-12-05T01:22:58.110Z,926.01
2017-12-05T01:23:11.252Z,926.01
2017-12-05T01:23:24.318Z,926.04
2017-12-05T01:23:36.911Z,926
2017-12-05T01:23:49.543Z,926.01
2017-12-05T01:24:02.738Z,925.99
2017-12-05T01:24:15.390Z,926
2017-12-05T01:24:28.452Z,925.97
2017-12-05T01:24:41.030Z,926
2017-12-05T01:24:53.646Z,925.96
2017-12-05T01:25:06.717Z,925.98
2017-12-05T01:25:19.351Z,925.96
2017-12-05T01:25:32.431Z,925.95
2017-12-05T01:25:44.566Z,925.96
2017-12-05T01:25:57.641Z,925.92
2017-12-05T01:26:12.111Z,925.93
2017-12-05T01:26:25.275Z,925.92
2017-12-05T01:26:38.342Z,925.94
2017-12-05T01:26:51.463Z,925.91
2017-12-05T01:27:04.590Z,925.92
2017-12-05T01:27:17.240Z,925.91
2017-12-05T01:27:30.316Z,925.94
2017-12-05T01:27:43.358Z,925.91
2017-12-05T01:27:55.516Z,925.93
2017-12-05T01:28:07.197Z,925.91
2017-12-05T01:28:20.286Z,925.9
2017-12-05T01:28:33.410Z,925.92
2017-12-05T01:28:46.504Z,925.9
2017-12-05T01:28:59.588Z,925.9
2017-12-05T01:29:13.253Z,925.91
2017-12-05T01:29:25.876Z,925.89
2017-12-05T01:29:39.007Z,925.93
2017-12-05T01:29:52.106Z,925.88
2017-12-05T01:30:04.288Z,925.9
2017-12-05T01:30:17.402Z,925.93
2017-12-05T01:30:30.498Z,925.94
2017-12-05T01:30:43.623Z,925.94
2017-12-05T01:30:56.255Z,925.97
2017-12-05T01:31:09.348Z,925.98
2017-12-05T01:31:22.484Z,925.99
2017-12-05T01:31:34.647Z,925.99
2017-12-05T01:31:47.291Z,926
2017-12-05T01:32:00.412Z,926
2017-12-05T01:32:13.518Z,926.01
2017-12-05T01:32:26.593Z,926.03
2017-12-05T01:32:39.263Z,926.04
2017-12-05T01:32:52.406Z,926.11
2017-12-05T01:33:05.059Z,926.05
2017-12-05T01:33:18.219Z,926.09
2017-12-05T01:33:31.342Z,926.09
2017-12-05T01:33:44.485Z,926.09
2017-12-05T01:33:57.151Z,926.09
2017-12-05T01:34:10.495Z,926.1
2017-12-05T01:34:23.559Z,926.1
2017-12-05T01:34:36.619Z,926.12
2017-12-05T01:34:49.742Z,926.1
2017-12-05T01:35:02.359Z,926.08
2017-12-05T01:35:15.479Z,926.1
2017-12-05T01:35:28.141Z,926.11
2017-12-05T01:35:40.754Z,926.11
2017-12-05T01:35:53.791Z,926.1
2017-12-05T01:36:06.884Z,926.11
2017-12-05T01:36:19.474Z,926.07
2017-12-05T01:36:32.581Z,926.06
2017-12-05T01:36:45.656Z,926.1
2017-12-05T01:36:58.734Z,926.08
2017-12-05T01:37:11.819Z,926.08
2017-12-05T01:37:24.976Z,926.1
2017-12-05T01:37:38.070Z,926.08
2017-12-05T01:37:51.224Z,926.09
2017-12-05T01:38:03.856Z,926.07
2017-12-05T01:38:16.912Z,926.09
2017-12-05T01:38:30.056Z,926.05
2017-12-05T01:38:42.721Z,926.04
2017-12-05T01:38:55.804Z,926.06
2017-12-05T01:39:08.899Z,926.03
2017-12-05T01:39:22.123Z,926.01
2017-12-05T01:39:35.228Z,926.06
2017-12-05T01:39:47.822Z,926.04
2017-12-05T01:40:00.875Z,926.05
2017-12-05T01:40:13.982Z,926.06
2017-12-05T01:40:27.084Z,926.05
2017-12-05T01:40:40.246Z,926.06
2017-12-05T01:40:53.348Z,926.07
2017-12-05T01:41:05.467Z,926.09
2017-12-05T01:41:18.602Z,926.06
2017-12-05T01:41:31.723Z,926.05
2017-12-05T01:41:44.802Z,926.01
2017-12-05T01:41:57.914Z,926.02
2017-12-05T01:42:09.618Z,926.03
2017-12-05T01:42:22.696Z,926.03
2017-12-05T01:42:35.303Z,925.99
2017-12-05T01:42:48.425Z,925.98
2017-12-05T01:43:01.483Z,926.03
2017-12-05T01:43:14.588Z,926.01
2017-12-05T01:43:27.721Z,926
2017-12-05T01:43:40.854Z,926
2017-12-05T01:43:53.897Z,925.94
2017-12-05T01:44:06.965Z,925.94
2017-12-05T01:44:20.291Z,925.95
2017-12-05T01:44:32.924Z,925.98
2017-12-05T01:44:46.048Z,925.97
2017-12-05T01:44:59.188Z,925.95
2017-12-05T01:45:12.315Z,925.99
2017-12-05T01:45:25.431Z,925.98
2017-12-05T01:45:38.507Z,925.92
2017-12-05T01:45:51.163Z,925.91
2017-12-05T01:46:03.820Z,925.91
2017-12-05T01:46:16.508Z,925.97
2017-12-05T01:46:29.649Z,925.94
2017-12-05T01:46:42.693Z,925.99
2017-12-05T01:46:55.789Z,925.95
2017-12-05T01:47:08.417Z,925.97
2017-12-05T01:47:21.454Z,925.97
2017-12-05T01:47:34.583Z,926.02
2017-12-05T01:47:47.199Z,925.97
2017-12-05T01:48:00.229Z,925.97
2017-12-05T01:48:12.421Z,925.96
2017-12-05T01:48:25.573Z,925.96
2017-12-05T01:48:38.714Z,926.01
2017-12-05T01:48:51.745Z,925.96
2017-12-05T01:49:04.770Z,925.96
2017-12-05T01:49:17.392Z,925.97
2017-12-05T01:49:30.482Z,925.96
2017-12-05T01:49:43.536Z,925.98
2017-12-05T01:49:56.558Z,925.95
2017-12-05T01:50:08.703Z,925.97
2017-12-05T01:50:21.822Z,925.97
2017-12-05T01:50:34.921Z,925.96
2017-12-05T01:50:48.033Z,925.97
2017-12-05T01:51:01.104Z,925.94
2017-12-05T01:51:14.293Z,925.94
2017-12-05T01:51:26.930Z,925.96
2017-12-05T01:51:39.995Z,925.97
2017-12-05T01:51:52.650Z,925.99
2017-12-05T01:52:05.797Z,925.97
2017-12-05T01:52:18.452Z,925.99
2017-12-05T01:52:30.655Z,925.99
2017-12-05T01:52:43.755Z,925.95
2017-12-05T01:52:56.857Z,925.99
2017-12-05T01:53:09.946Z,925.99
2017-12-05T01:53:23.030Z,925.95
2017-12-05T01:53:35.647Z,925.98
2017-12-05T01:53:48.818Z,925.93
2017-12-05T01:54:01.925Z,925.99
2017-12-05T01:54:14.513Z,925.97
2017-12-05T01:54:27.634Z,926.01
2017-12-05T01:54:40.962Z,925.94
2017-12-05T01:54:54.056Z,926
2017-12-05T01:55:06.674Z,925.95
2017-12-05T01:55:18.839Z,926.01
2017-12-05T01:55:32.018Z,926.01
2017-12-05T01:55:44.925Z,926.04
2017-12-05T01:55:58.020Z,926.01
2017-12-05T01:56:10.675Z,926
2017-12-05T01:56:23.312Z,925.97
2017-12-05T01:56:36.411Z,925.96
2017-12-05T01:56:49.496Z,925.98
2017-12-05T01:57:02.215Z,926
2017-12-05T01:57:15.357Z,926.02
2017-12-05T01:57:28.457Z,925.97
2017-12-05T01:57:41.529Z,926
2017-12-05T01:57:54.623Z,925.99
2017-12-05T01:58:07.727Z,925.96
2017-12-05T01:58:20.834Z,925.98
2017-12-05T01:58:33.952Z,926.01
2017-12-05T01:58:47.063Z,926.02
2017-12-05T01:59:00.136Z,926.01
2017-12-05T01:59:12.781Z,926
2017-12-05T01:59:26.576Z,926
2017-12-05T01:59:39.261Z,926.01
2017-12-05T01:59:52.370Z,925.99
2017-12-05T02:00:05.426Z,925.99
2017-12-05T02:00:18.524Z,926.02
2017-12-05T02:00:31.112Z,925.99
2017-12-05T02:00:44.219Z,926.01
2017-12-05T02:00:57.301Z,926.01
2017-12-05T02:01:10.435Z,926.01
2017-12-05T02:01:23.522Z,925.99
2017-12-05T02:01:36.566Z,926.01
2017-12-05T02:01:49.685Z,926
2017-12-05T02:02:02.834Z,926.02
2017-12-05T02:02:15.991Z,926.01
2017-12-05T02:02:28.259Z,925.98
2017-12-05T02:02:40.911Z,926
2017-12-05T02:02:53.586Z,926
2017-12-05T02:03:06.713Z,926
2017-12-05T02:03:19.852Z,925.98
2017-12-05T02:03:32.966Z,926.02
2017-12-05T02:03:45.591Z,926.04
2017-12-05T02:03:58.710Z,926.03
2017-12-05T02:04:11.827Z,926
2017-12-05T02:04:24.587Z,926.01
2017-12-05T02:04:37.652Z,926.03
2017-12-05T02:04:50.746Z,926
2017-12-05T02:05:03.900Z,925.97
2017-12-05T02:05:17.031Z,926.04
2017-12-05T02:05:29.643Z,925.98
2017-12-05T02:05:42.307Z,926.02
2017-12-05T02:05:54.950Z,925.98
2017-12-05T02:06:08.041Z,926.04
2017-12-05T02:06:20.720Z,926.04
2017-12-05T02:06:33.797Z,925.99
2017-12-05T02:06:46.909Z,925.99
2017-12-05T02:07:00.056Z,925.99
2017-12-05T02:07:13.184Z,925.99
2017-12-05T02:07:26.227Z,925.96
2017-12-05T02:07:39.318Z,925.97
2017-12-05T02:07:52.404Z,925.97
2017-12-05T02:08:05.560Z,925.97
2017-12-05T02:08:18.215Z,925.96
2017-12-05T02:08:31.269Z,925.95
2017-12-05T02:08:43.908Z,925.97
2017-12-05T02:08:57.269Z,925.96
2017-12-05T02:09:10.356Z,925.94
2017-12-05T02:09:22.961Z,925.93
2017-12-05T02:09:36.004Z,925.96
2017-12-05T02:09:49.111Z,925.92
2017-12-05T02:10:02.285Z,925.93
2017-12-05T02:10:15.400Z,925.92
2017-12-05T02:10:28.489Z,925.92
2017-12-05T02:10:41.530Z,925.9
2017-12-05T02:10:54.625Z,925.92
2017-12-05T02:11:07.659Z,925.91
2017-12-05T02:11:20.733Z,925.93
2017-12-05T02:11:33.834Z,925.91
2017-12-05T02:11:46.508Z,925.88
2017-12-05T02:11:59.145Z,925.93
2017-12-05T02:12:11.737Z,925.89
2017-12-05T02:12:24.800Z,925.89
2017-12-05T02:12:37.393Z,925.89
2017-12-05T02:12:50.557Z,925.9
2017-12-05T02:13:03.637Z,925.89
2017-12-05T02:13:16.724Z,925.86
2017-12-05T02:13:29.842Z,925.88
2017-12-05T02:13:42.888Z,925.89
2017-12-05T02:13:55.976Z,925.87
2017-12-05T02:14:09.079Z,925.88
2017-12-05T02:14:21.729Z,925.86
2017-12-05T02:14:35.470Z,925.88
2017-12-05T02:14:48.596Z,925.89
2017-12-05T02:15:01.657Z,925.89
2017-12-05T02:15:14.780Z,925.88
2017-12-05T02:15:27.859Z,925.87
2017-12-05T02:15:40.939Z,925.86
2017-12-05T02:15:53.991Z,925.86
2017-12-05T02:16:07.013Z,925.9
2017-12-05T02:16:20.116Z,925.91
2017-12-05T02:16:32.772Z,925.89
2017-12-05T02:16:45.932Z,925.91
2017-12-05T02:16:59.076Z,925.89
2017-12-05T02:17:12.146Z,925.9
2017-12-05T02:17:25.320Z,925.91
2017-12-05T02:17:37.968Z,925.87
2017-12-05T02:17:51.108Z,925.89
2017-12-05T02:18:04.474Z,925.86
2017-12-05T02:18:17.585Z,925.92
2017-12-05T02:18:30.646Z,925.89
2017-12-05T02:18:43.720Z,925.88
2017-12-05T02:18:56.836Z,925.84
2017-12-05T02:19:09.858Z,925.87
2017-12-05T02:19:22.471Z,925.89
2017-12-05T02:19:35.583Z,925.84
2017-12-05T02:19:48.677Z,925.86
2017-12-05T02:20:00.799Z,925.81
2017-12-05T02:20:12.440Z,925.89
2017-12-05T02:20:25.111Z,925.85
2017-12-05T02:20:38.202Z,925.86
2017-12-05T02:20:50.799Z,925.88
2017-12-05T02:21:03.908Z,925.87
2017-12-05T02:21:16.965Z,925.87
2017-12-05T02:21:30.168Z,925.89
2017-12-05T02:21:43.332Z,925.91
2017-12-05T02:21:56.485Z,925.91
2017-12-05T02:22:09.095Z,925.89
2017-12-05T02:22:22.144Z,925.87
2017-12-05T02:22:35.260Z,925.89
2017-12-05T02:22:48.109Z,925.91
2017-12-05T02:23:01.220Z,925.88
2017-12-05T02:23:14.350Z,925.86
2017-12-05T02:23:26.548Z,925.88
2017-12-05T02:23:39.672Z,925.87
2017-12-05T02:23:52.269Z,925.85
2017-12-05T02:24:05.356Z,925.92
2017-12-05T02:24:17.949Z,925.89
2017-12-05T02:24:31.037Z,925.92
2017-12-05T02:24:44.181Z,925.89
2017-12-05T02:24:57.272Z,925.9
2017-12-05T02:25:10.333Z,925.88
2017-12-05T02:25:23.462Z,925.95
2017-12-05T02:25:36.065Z,925.92
2017-12-05T02:25:49.191Z,925.89
2017-12-05T02:26:02.302Z,925.89
2017-12-05T02:26:15.372Z,925.88
2017-12-05T02:26:28.567Z,925.88
2017-12-05T02:26:41.758Z,925.86
2017-12-05T02:26:54.842Z,925.93
2017-12-05T02:27:07.449Z,925.9
2017-12-05T02:27:20.124Z,925.88
2017-12-05T02:27:33.235Z,925.83
2017-12-05T02:27:46.290Z,925.87
2017-12-05T02:27:59.396Z,925.86
2017-12-05T02:28:12.455Z,925.85
2017-12-05T02:28:25.087Z,925.85
2017-12-05T02:28:38.229Z,925.83
2017-12-05T02:28:50.858Z,925.84
2017-12-05T02:29:03.937Z,925.86
2017-12-05T02:29:17.041Z,925.88
2017-12-05T02:29:30.756Z,925.89
2017-12-05T02:29:43.405Z,925.88
2017-12-05T02:29:56.132Z,925.85
2017-12-05T02:30:08.748Z,925.91
2017-12-05T02:30:22.101Z,925.88
2017-12-05T02:30:35.258Z,925.85
2017-12-05T02:30:48.388Z,925.83
2017-12-05T02:31:01.037Z,925.85
2017-12-05T02:31:13.685Z,925.86
2017-12-05T02:31:26.310Z,925.88
2017-12-05T02:31:39.615Z,925.83
2017-12-05T02:31:52.708Z,925.82
2017-12-05T02:32:05.793Z,925.85
2017-12-05T02:32:18.416Z,925.87
2017-12-05T02:32:31.493Z,925.82
2017-12-05T02:32:44.118Z,925.81
2017-12-05T02:32:57.252Z,925.85
2017-12-05T02:33:10.330Z,925.83
2017-12-05T02:33:23.465Z,925.85
2017-12-05T02:33:36.617Z,925.78
2017-12-05T02:33:49.637Z,925.81
2017-12-05T02:34:02.752Z,925.79
2017-12-05T02:34:14.893Z,925.77
2017-12-05T02:34:27.946Z,925.79
2017-12-05T02:34:41.146Z,925.77
2017-12-05T02:34:54.221Z,925.78
2017-12-05T02:35:07.414Z,925.79
2017-12-05T02:35:19.111Z,925.77
2017-12-05T02:35:32.227Z,925.75
2017-12-05T02:35:45.314Z,925.75
2017-12-05T02:35:58.470Z,925.72
2017-12-05T02:36:11.549Z,925.77
2017-12-05T02:36:24.668Z,925.73
2017-12-05T02:36:37.795Z,925.74
2017-12-05T02:36:50.902Z,925.74
2017-12-05T02:37:03.999Z,925.74
2017-12-05T02:37:17.060Z,925.72
2017-12-05T02:37:30.159Z,925.72
2017-12-05T02:37:42.758Z,925.7
2017-12-05T02:37:55.873Z,925.71
2017-12-05T02:38:07.080Z,925.69
2017-12-05T02:38:19.693Z,925.72
2017-12-05T02:38:32.827Z,925.76
2017-12-05T02:38:45.923Z,925.8
2017-12-05T02:38:59.048Z,925.75
2017-12-05T02:39:12.173Z,925.78
2017-12-05T02:39:25.253Z,925.77
2017-12-05T02:39:38.320Z,925.77
2017-12-05T02:39:51.212Z,925.75
2017-12-05T02:40:04.319Z,925.79
2017-12-05T02:40:16.908Z,925.82
2017-12-05T02:40:29.605Z,925.79
2017-12-05T02:40:42.722Z,925.8
2017-12-05T02:40:55.916Z,925.85
2017-12-05T02:41:09.019Z,925.77
2017-12-05T02:41:22.057Z,925.78
2017-12-05T02:41:35.147Z,925.76
2017-12-05T02:41:48.299Z,925.76
2017-12-05T02:42:01.383Z,925.8
2017-12-05T02:42:13.974Z,925.78
2017-12-05T02:42:27.078Z,925.81
2017-12-05T02:42:40.188Z,925.8